sensor_id;sensor_type;location;lat;lon;timestamp;temperature;humidity
11922;DHT22;6021;51.182;3.160;2022-08-25T00:02:09;22.80;99.90
11922;DHT22;6021;51.182;3.160;2022-08-25T00:04:38;22.80;99.90
11922;DHT22;6021;51.182;3.160;2022-08-25T00:07:06;22.80;99.90
11922;DHT22;6021;51.182;3.160;2022-08-25T00:09:35;22.70;99.90
11922;DHT22;6021;51.182;3.160;2022-08-25T00:12:04;22.70;99.90
11922;DHT22;6021;51.182;3.160;2022-08-25T00:14:35;22.60;99.90
11922;DHT22;6021;51.182;3.160;2022-08-25T00:17:05;22.60;99.90
11922;DHT22;6021;51.182;3.160;2022-08-25T00:19:36;22.60;99.90
11922;DHT22;6021;51.182;3.160;2022-08-25T00:22:06;22.50;99.90
11922;DHT22;6021;51.182;3.160;2022-08-25T00:24:34;22.50;99.90
11922;DHT22;6021;51.182;3.160;2022-08-25T00:27:03;22.50;99.90
11922;DHT22;6021;51.182;3.160;2022-08-25T00:29:32;22.40;99.90
11922;DHT22;6021;51.182;3.160;2022-08-25T00:32:03;22.30;99.90
11922;DHT22;6021;51.182;3.160;2022-08-25T00:34:34;22.30;99.90
11922;DHT22;6021;51.182;3.160;2022-08-25T00:37:05;22.20;99.90
11922;DHT22;6021;51.182;3.160;2022-08-25T00:39:36;22.20;99.90
11922;DHT22;6021;51.182;3.160;2022-08-25T00:42:06;22.20;99.90
11922;DHT22;6021;51.182;3.160;2022-08-25T00:44:35;22.20;99.90
11922;DHT22;6021;51.182;3.160;2022-08-25T00:47:06;22.30;99.90
11922;DHT22;6021;51.182;3.160;2022-08-25T00:52:18;22.40;99.90
11922;DHT22;6021;51.182;3.160;2022-08-25T00:54:52;22.30;99.90
11922;DHT22;6021;51.182;3.160;2022-08-25T00:57:24;22.30;99.90
11922;DHT22;6021;51.182;3.160;2022-08-25T00:59:52;22.20;99.90
11922;DHT22;6021;51.182;3.160;2022-08-25T01:02:21;22.20;99.90
11922;DHT22;6021;51.182;3.160;2022-08-25T01:04:50;22.10;99.90
11922;DHT22;6021;51.182;3.160;2022-08-25T01:07:19;22.10;99.90
11922;DHT22;6021;51.182;3.160;2022-08-25T01:09:51;22.10;99.90
11922;DHT22;6021;51.182;3.160;2022-08-25T01:12:21;22.00;99.90
11922;DHT22;6021;51.182;3.160;2022-08-25T01:14:50;22.00;99.90
11922;DHT22;6021;51.182;3.160;2022-08-25T01:17:19;22.00;99.90
11922;DHT22;6021;51.182;3.160;2022-08-25T01:19:48;22.00;99.90
11922;DHT22;6021;51.182;3.160;2022-08-25T01:22:16;21.90;99.90
11922;DHT22;6021;51.182;3.160;2022-08-25T01:24:49;21.90;99.90
11922;DHT22;6021;51.182;3.160;2022-08-25T01:27:16;21.80;99.90
11922;DHT22;6021;51.182;3.160;2022-08-25T01:29:44;21.70;99.90
11922;DHT22;6021;51.182;3.160;2022-08-25T01:32:13;21.70;99.90
11922;DHT22;6021;51.182;3.160;2022-08-25T01:34:43;21.60;99.90
11922;DHT22;6021;51.182;3.160;2022-08-25T01:37:14;21.60;99.90
11922;DHT22;6021;51.182;3.160;2022-08-25T01:39:43;21.60;99.90
11922;DHT22;6021;51.182;3.160;2022-08-25T01:42:23;21.50;99.90
11922;DHT22;6021;51.182;3.160;2022-08-25T01:44:48;21.50;99.90
11922;DHT22;6021;51.182;3.160;2022-08-25T01:47:17;21.30;99.90
11922;DHT22;6021;51.182;3.160;2022-08-25T01:49:45;21.30;99.90
11922;DHT22;6021;51.182;3.160;2022-08-25T01:52:54;21.20;99.90
11922;DHT22;6021;51.182;3.160;2022-08-25T01:55:06;21.10;99.90
11922;DHT22;6021;51.182;3.160;2022-08-25T01:57:35;21.10;99.90
11922;DHT22;6021;51.182;3.160;2022-08-25T02:00:05;21.00;99.90
11922;DHT22;6021;51.182;3.160;2022-08-25T02:02:34;20.90;99.90
11922;DHT22;6021;51.182;3.160;2022-08-25T02:05:03;20.80;99.90
11922;DHT22;6021;51.182;3.160;2022-08-25T02:07:32;20.80;99.90
11922;DHT22;6021;51.182;3.160;2022-08-25T02:10:00;20.80;99.90
11922;DHT22;6021;51.182;3.160;2022-08-25T02:12:31;20.80;99.90
11922;DHT22;6021;51.182;3.160;2022-08-25T02:14:59;20.80;99.90
11922;DHT22;6021;51.182;3.160;2022-08-25T02:17:32;20.80;99.90
11922;DHT22;6021;51.182;3.160;2022-08-25T02:20:05;20.70;99.90
11922;DHT22;6021;51.182;3.160;2022-08-25T02:22:35;20.70;99.90
11922;DHT22;6021;51.182;3.160;2022-08-25T02:25:04;20.70;99.90
11922;DHT22;6021;51.182;3.160;2022-08-25T02:27:33;20.60;99.90
11922;DHT22;6021;51.182;3.160;2022-08-25T02:30:03;20.60;99.90
11922;DHT22;6021;51.182;3.160;2022-08-25T02:32:32;20.60;99.90
11922;DHT22;6021;51.182;3.160;2022-08-25T02:35:00;20.60;99.90
11922;DHT22;6021;51.182;3.160;2022-08-25T02:37:28;20.50;99.90
11922;DHT22;6021;51.182;3.160;2022-08-25T02:39:57;20.50;99.90
11922;DHT22;6021;51.182;3.160;2022-08-25T02:42:26;20.60;99.90
11922;DHT22;6021;51.182;3.160;2022-08-25T02:44:55;20.60;99.90
11922;DHT22;6021;51.182;3.160;2022-08-25T02:47:24;20.60;99.90
11922;DHT22;6021;51.182;3.160;2022-08-25T02:49:52;20.60;99.90
11922;DHT22;6021;51.182;3.160;2022-08-25T02:52:21;20.60;99.90
11922;DHT22;6021;51.182;3.160;2022-08-25T02:54:51;20.60;99.90
11922;DHT22;6021;51.182;3.160;2022-08-25T02:57:19;20.60;99.90
11922;DHT22;6021;51.182;3.160;2022-08-25T02:59:48;20.60;99.90
11922;DHT22;6021;51.182;3.160;2022-08-25T03:02:17;20.60;99.90
11922;DHT22;6021;51.182;3.160;2022-08-25T03:04:46;20.60;99.90
11922;DHT22;6021;51.182;3.160;2022-08-25T03:07:14;20.60;99.90
11922;DHT22;6021;51.182;3.160;2022-08-25T03:09:43;20.60;99.90
11922;DHT22;6021;51.182;3.160;2022-08-25T03:12:12;20.70;99.90
11922;DHT22;6021;51.182;3.160;2022-08-25T03:14:40;20.60;99.90
11922;DHT22;6021;51.182;3.160;2022-08-25T03:17:09;20.60;99.90
11922;DHT22;6021;51.182;3.160;2022-08-25T03:19:37;20.60;99.90
11922;DHT22;6021;51.182;3.160;2022-08-25T03:22:05;20.60;99.90
11922;DHT22;6021;51.182;3.160;2022-08-25T03:24:53;20.50;99.90
11922;DHT22;6021;51.182;3.160;2022-08-25T03:27:23;20.50;99.90
11922;DHT22;6021;51.182;3.160;2022-08-25T03:29:51;20.50;99.90
11922;DHT22;6021;51.182;3.160;2022-08-25T03:32:21;20.40;99.90
11922;DHT22;6021;51.182;3.160;2022-08-25T03:34:50;20.40;99.90
11922;DHT22;6021;51.182;3.160;2022-08-25T03:37:18;20.30;99.90
11922;DHT22;6021;51.182;3.160;2022-08-25T03:39:47;20.30;99.90
11922;DHT22;6021;51.182;3.160;2022-08-25T03:42:15;20.30;99.90
11922;DHT22;6021;51.182;3.160;2022-08-25T03:44:44;20.30;99.90
11922;DHT22;6021;51.182;3.160;2022-08-25T03:47:12;20.30;99.90
11922;DHT22;6021;51.182;3.160;2022-08-25T03:49:40;20.20;99.90
11922;DHT22;6021;51.182;3.160;2022-08-25T03:52:09;20.20;99.90
11922;DHT22;6021;51.182;3.160;2022-08-25T03:54:37;20.10;99.90
11922;DHT22;6021;51.182;3.160;2022-08-25T03:57:05;20.10;99.90
11922;DHT22;6021;51.182;3.160;2022-08-25T03:59:34;20.00;99.90
11922;DHT22;6021;51.182;3.160;2022-08-25T04:02:05;20.00;99.90
11922;DHT22;6021;51.182;3.160;2022-08-25T04:04:34;20.00;99.90
11922;DHT22;6021;51.182;3.160;2022-08-25T04:07:02;20.00;99.90
11922;DHT22;6021;51.182;3.160;2022-08-25T04:09:31;20.00;99.90
11922;DHT22;6021;51.182;3.160;2022-08-25T04:11:59;20.00;99.90
11922;DHT22;6021;51.182;3.160;2022-08-25T04:14:27;20.00;99.90
11922;DHT22;6021;51.182;3.160;2022-08-25T04:16:56;20.10;99.90
11922;DHT22;6021;51.182;3.160;2022-08-25T04:19:25;20.10;99.90
11922;DHT22;6021;51.182;3.160;2022-08-25T04:21:53;20.00;99.90
11922;DHT22;6021;51.182;3.160;2022-08-25T04:24:21;20.00;99.90
11922;DHT22;6021;51.182;3.160;2022-08-25T04:26:50;20.00;99.90
11922;DHT22;6021;51.182;3.160;2022-08-25T04:29:21;20.00;99.90
11922;DHT22;6021;51.182;3.160;2022-08-25T04:31:51;20.00;99.90
11922;DHT22;6021;51.182;3.160;2022-08-25T04:34:21;20.00;99.90
11922;DHT22;6021;51.182;3.160;2022-08-25T04:36:50;20.00;99.90
11922;DHT22;6021;51.182;3.160;2022-08-25T04:39:19;20.00;99.90
11922;DHT22;6021;51.182;3.160;2022-08-25T04:41:48;20.00;99.90
11922;DHT22;6021;51.182;3.160;2022-08-25T04:44:16;20.00;99.90
11922;DHT22;6021;51.182;3.160;2022-08-25T04:46:45;20.00;99.90
11922;DHT22;6021;51.182;3.160;2022-08-25T04:49:14;20.10;99.90
11922;DHT22;6021;51.182;3.160;2022-08-25T04:51:42;20.00;99.90
11922;DHT22;6021;51.182;3.160;2022-08-25T04:54:13;20.00;99.90
11922;DHT22;6021;51.182;3.160;2022-08-25T04:56:48;20.00;99.90
11922;DHT22;6021;51.182;3.160;2022-08-25T04:59:17;20.00;99.90
11922;DHT22;6021;51.182;3.160;2022-08-25T05:01:46;20.00;99.90
11922;DHT22;6021;51.182;3.160;2022-08-25T05:04:15;19.90;99.90
11922;DHT22;6021;51.182;3.160;2022-08-25T05:06:43;19.90;99.90
11922;DHT22;6021;51.182;3.160;2022-08-25T05:09:12;19.90;99.90
11922;DHT22;6021;51.182;3.160;2022-08-25T05:11:41;19.90;99.90
11922;DHT22;6021;51.182;3.160;2022-08-25T05:14:09;19.90;99.90
11922;DHT22;6021;51.182;3.160;2022-08-25T05:16:39;19.90;99.90
11922;DHT22;6021;51.182;3.160;2022-08-25T05:19:07;19.90;99.90
11922;DHT22;6021;51.182;3.160;2022-08-25T05:21:35;19.80;99.90
11922;DHT22;6021;51.182;3.160;2022-08-25T05:24:04;19.80;99.90
11922;DHT22;6021;51.182;3.160;2022-08-25T05:26:34;19.80;99.90
11922;DHT22;6021;51.182;3.160;2022-08-25T05:29:04;19.80;99.90
11922;DHT22;6021;51.182;3.160;2022-08-25T05:31:33;19.80;99.90
11922;DHT22;6021;51.182;3.160;2022-08-25T05:34:06;19.90;99.90
11922;DHT22;6021;51.182;3.160;2022-08-25T05:36:35;20.00;99.90
11922;DHT22;6021;51.182;3.160;2022-08-25T05:39:04;20.00;99.90
11922;DHT22;6021;51.182;3.160;2022-08-25T05:41:33;20.10;99.90
11922;DHT22;6021;51.182;3.160;2022-08-25T05:44:01;20.10;99.90
11922;DHT22;6021;51.182;3.160;2022-08-25T05:46:29;20.20;99.90
11922;DHT22;6021;51.182;3.160;2022-08-25T05:48:58;20.20;99.90
11922;DHT22;6021;51.182;3.160;2022-08-25T05:51:26;20.20;99.90
11922;DHT22;6021;51.182;3.160;2022-08-25T05:53:55;20.30;99.90
11922;DHT22;6021;51.182;3.160;2022-08-25T05:56:23;20.30;99.90
11922;DHT22;6021;51.182;3.160;2022-08-25T05:58:51;20.30;99.90
11922;DHT22;6021;51.182;3.160;2022-08-25T06:01:39;20.40;99.90
11922;DHT22;6021;51.182;3.160;2022-08-25T06:04:25;20.40;99.90
11922;DHT22;6021;51.182;3.160;2022-08-25T06:06:53;20.50;99.90
11922;DHT22;6021;51.182;3.160;2022-08-25T06:09:22;20.50;99.90
11922;DHT22;6021;51.182;3.160;2022-08-25T06:11:50;20.50;99.90
11922;DHT22;6021;51.182;3.160;2022-08-25T06:14:19;20.60;99.90
11922;DHT22;6021;51.182;3.160;2022-08-25T06:16:47;20.70;99.90
11922;DHT22;6021;51.182;3.160;2022-08-25T06:19:17;20.80;99.90
11922;DHT22;6021;51.182;3.160;2022-08-25T06:21:47;20.90;99.90
11922;DHT22;6021;51.182;3.160;2022-08-25T06:24:16;20.90;99.90
11922;DHT22;6021;51.182;3.160;2022-08-25T06:26:44;21.00;99.90
11922;DHT22;6021;51.182;3.160;2022-08-25T06:29:13;21.10;99.90
11922;DHT22;6021;51.182;3.160;2022-08-25T06:31:42;21.20;99.90
11922;DHT22;6021;51.182;3.160;2022-08-25T06:34:11;21.20;99.90
11922;DHT22;6021;51.182;3.160;2022-08-25T06:36:40;21.30;99.90
11922;DHT22;6021;51.182;3.160;2022-08-25T06:39:09;21.50;99.90
11922;DHT22;6021;51.182;3.160;2022-08-25T06:41:38;21.70;99.90
11922;DHT22;6021;51.182;3.160;2022-08-25T06:44:06;21.80;99.90
11922;DHT22;6021;51.182;3.160;2022-08-25T06:46:36;21.90;99.90
11922;DHT22;6021;51.182;3.160;2022-08-25T06:49:05;21.80;99.90
11922;DHT22;6021;51.182;3.160;2022-08-25T06:51:34;22.00;99.90
11922;DHT22;6021;51.182;3.160;2022-08-25T06:54:05;22.00;99.90
11922;DHT22;6021;51.182;3.160;2022-08-25T06:56:34;22.10;99.90
11922;DHT22;6021;51.182;3.160;2022-08-25T06:59:03;22.30;99.90
11922;DHT22;6021;51.182;3.160;2022-08-25T07:01:32;22.50;99.90
11922;DHT22;6021;51.182;3.160;2022-08-25T07:04:02;22.50;83.20
11922;DHT22;6021;51.182;3.160;2022-08-25T07:06:32;22.50;72.40
11922;DHT22;6021;51.182;3.160;2022-08-25T07:09:06;22.50;67.30
11922;DHT22;6021;51.182;3.160;2022-08-25T07:11:35;22.50;64.40
11922;DHT22;6021;51.182;3.160;2022-08-25T07:14:06;22.60;60.00
11922;DHT22;6021;51.182;3.160;2022-08-25T07:16:34;22.60;55.60
11922;DHT22;6021;51.182;3.160;2022-08-25T07:19:04;22.80;51.30
11922;DHT22;6021;51.182;3.160;2022-08-25T07:21:35;22.80;48.50
11922;DHT22;6021;51.182;3.160;2022-08-25T07:24:09;23.00;36.40
11922;DHT22;6021;51.182;3.160;2022-08-25T07:26:40;23.10;31.10
11922;DHT22;6021;51.182;3.160;2022-08-25T07:29:15;23.10;15.90
11922;DHT22;6021;51.182;3.160;2022-08-25T07:31:43;23.30;5.10
11922;DHT22;6021;51.182;3.160;2022-08-25T07:34:12;23.30;1.00
11922;DHT22;6021;51.182;3.160;2022-08-25T07:36:58;23.60;1.00
11922;DHT22;6021;51.182;3.160;2022-08-25T07:39:27;24.00;1.00
11922;DHT22;6021;51.182;3.160;2022-08-25T07:41:55;24.10;1.00
11922;DHT22;6021;51.182;3.160;2022-08-25T07:44:25;24.30;1.00
11922;DHT22;6021;51.182;3.160;2022-08-25T07:46:53;24.30;1.00
11922;DHT22;6021;51.182;3.160;2022-08-25T07:49:23;24.40;1.00
11922;DHT22;6021;51.182;3.160;2022-08-25T07:51:53;24.40;1.00
11922;DHT22;6021;51.182;3.160;2022-08-25T07:54:22;24.50;1.00
11922;DHT22;6021;51.182;3.160;2022-08-25T07:56:52;24.50;1.00
11922;DHT22;6021;51.182;3.160;2022-08-25T07:59:20;24.60;1.00
11922;DHT22;6021;51.182;3.160;2022-08-25T08:01:49;24.70;1.00
11922;DHT22;6021;51.182;3.160;2022-08-25T08:04:17;24.80;1.00
11922;DHT22;6021;51.182;3.160;2022-08-25T08:06:45;24.80;1.00
11922;DHT22;6021;51.182;3.160;2022-08-25T08:09:14;25.00;1.00
11922;DHT22;6021;51.182;3.160;2022-08-25T08:11:42;25.10;1.00
11922;DHT22;6021;51.182;3.160;2022-08-25T08:14:11;25.20;1.00
11922;DHT22;6021;51.182;3.160;2022-08-25T08:16:39;25.40;1.00
11922;DHT22;6021;51.182;3.160;2022-08-25T08:19:07;25.30;1.00
11922;DHT22;6021;51.182;3.160;2022-08-25T08:21:37;25.40;1.00
11922;DHT22;6021;51.182;3.160;2022-08-25T08:24:06;25.60;1.00
11922;DHT22;6021;51.182;3.160;2022-08-25T08:26:34;25.50;1.00
11922;DHT22;6021;51.182;3.160;2022-08-25T08:29:03;25.80;1.00
11922;DHT22;6021;51.182;3.160;2022-08-25T08:34:07;25.90;1.00
11922;DHT22;6021;51.182;3.160;2022-08-25T08:36:37;25.90;1.00
11922;DHT22;6021;51.182;3.160;2022-08-25T08:39:20;25.90;1.00
11922;DHT22;6021;51.182;3.160;2022-08-25T08:42:18;25.90;1.00
11922;DHT22;6021;51.182;3.160;2022-08-25T08:51:00;25.90;1.00
11922;DHT22;6021;51.182;3.160;2022-08-25T08:53:39;25.90;1.00
11922;DHT22;6021;51.182;3.160;2022-08-25T08:56:13;26.00;1.00
11922;DHT22;6021;51.182;3.160;2022-08-25T08:58:45;26.10;1.00
11922;DHT22;6021;51.182;3.160;2022-08-25T09:01:22;26.00;1.00
11922;DHT22;6021;51.182;3.160;2022-08-25T09:03:57;26.00;1.00
11922;DHT22;6021;51.182;3.160;2022-08-25T09:06:37;26.00;1.00
11922;DHT22;6021;51.182;3.160;2022-08-25T09:09:04;26.00;1.00
11922;DHT22;6021;51.182;3.160;2022-08-25T09:14:31;26.00;1.00
11922;DHT22;6021;51.182;3.160;2022-08-25T09:25:31;26.20;1.00
11922;DHT22;6021;51.182;3.160;2022-08-25T09:28:18;26.20;1.00
11922;DHT22;6021;51.182;3.160;2022-08-25T09:31:25;26.20;1.00
11922;DHT22;6021;51.182;3.160;2022-08-25T09:33:55;26.40;1.00
11922;DHT22;6021;51.182;3.160;2022-08-25T09:36:24;26.30;1.00
11922;DHT22;6021;51.182;3.160;2022-08-25T09:38:53;26.40;1.00
11922;DHT22;6021;51.182;3.160;2022-08-25T09:41:43;26.50;1.00
11922;DHT22;6021;51.182;3.160;2022-08-25T09:44:32;26.40;1.00
11922;DHT22;6021;51.182;3.160;2022-08-25T09:47:06;26.50;1.00
11922;DHT22;6021;51.182;3.160;2022-08-25T09:49:43;26.50;1.00
11922;DHT22;6021;51.182;3.160;2022-08-25T09:54:50;26.80;1.00
11922;DHT22;6021;51.182;3.160;2022-08-25T09:57:33;26.80;1.00
11922;DHT22;6021;51.182;3.160;2022-08-25T10:00:20;26.80;1.00
11922;DHT22;6021;51.182;3.160;2022-08-25T10:03:20;26.80;1.00
11922;DHT22;6021;51.182;3.160;2022-08-25T10:05:58;26.70;1.00
11922;DHT22;6021;51.182;3.160;2022-08-25T10:08:36;26.90;1.00
11922;DHT22;6021;51.182;3.160;2022-08-25T10:11:03;26.90;1.00
11922;DHT22;6021;51.182;3.160;2022-08-25T10:19:03;26.70;1.00
11922;DHT22;6021;51.182;3.160;2022-08-25T10:21:31;26.70;1.00
11922;DHT22;6021;51.182;3.160;2022-08-25T10:23:59;26.50;1.00
11922;DHT22;6021;51.182;3.160;2022-08-25T10:32:07;26.30;1.00
11922;DHT22;6021;51.182;3.160;2022-08-25T10:34:44;26.20;1.00
11922;DHT22;6021;51.182;3.160;2022-08-25T10:37:21;26.20;1.00
11922;DHT22;6021;51.182;3.160;2022-08-25T10:40:02;26.10;1.00
11922;DHT22;6021;51.182;3.160;2022-08-25T10:42:44;25.90;1.00
11922;DHT22;6021;51.182;3.160;2022-08-25T10:45:26;25.70;1.00
11922;DHT22;6021;51.182;3.160;2022-08-25T10:48:27;25.60;1.00
11922;DHT22;6021;51.182;3.160;2022-08-25T10:54:01;25.50;1.00
11922;DHT22;6021;51.182;3.160;2022-08-25T10:56:32;25.40;1.00
11922;DHT22;6021;51.182;3.160;2022-08-25T10:59:09;25.40;3.50
11922;DHT22;6021;51.182;3.160;2022-08-25T11:01:56;25.50;5.50
11922;DHT22;6021;51.182;3.160;2022-08-25T11:04:24;25.50;10.90
11922;DHT22;6021;51.182;3.160;2022-08-25T11:07:02;25.40;17.70
11922;DHT22;6021;51.182;3.160;2022-08-25T11:09:41;25.50;16.80
11922;DHT22;6021;51.182;3.160;2022-08-25T11:12:14;25.40;15.50
11922;DHT22;6021;51.182;3.160;2022-08-25T11:14:48;25.20;22.90
11922;DHT22;6021;51.182;3.160;2022-08-25T11:17:21;25.20;52.40
11922;DHT22;6021;51.182;3.160;2022-08-25T11:19:54;25.20;54.80
11922;DHT22;6021;51.182;3.160;2022-08-25T11:22:45;25.20;83.70
11922;DHT22;6021;51.182;3.160;2022-08-25T11:25:18;25.20;91.80
11922;DHT22;6021;51.182;3.160;2022-08-25T11:27:58;25.10;99.90
11922;DHT22;6021;51.182;3.160;2022-08-25T11:30:26;25.10;99.90
11922;DHT22;6021;51.182;3.160;2022-08-25T11:32:55;25.20;99.90
11922;DHT22;6021;51.182;3.160;2022-08-25T11:35:30;25.00;99.90
11922;DHT22;6021;51.182;3.160;2022-08-25T11:41:33;24.80;99.90
11922;DHT22;6021;51.182;3.160;2022-08-25T11:44:09;24.70;99.90
11922;DHT22;6021;51.182;3.160;2022-08-25T11:47:17;25.00;99.90
11922;DHT22;6021;51.182;3.160;2022-08-25T11:49:30;25.00;99.90
11922;DHT22;6021;51.182;3.160;2022-08-25T11:51:55;24.90;99.90
11922;DHT22;6021;51.182;3.160;2022-08-25T11:54:41;24.80;99.90
11922;DHT22;6021;51.182;3.160;2022-08-25T11:57:18;24.80;99.90
11922;DHT22;6021;51.182;3.160;2022-08-25T12:02:32;24.80;99.90
11922;DHT22;6021;51.182;3.160;2022-08-25T12:05:05;24.80;99.90
11922;DHT22;6021;51.182;3.160;2022-08-25T12:07:58;24.90;99.90
11922;DHT22;6021;51.182;3.160;2022-08-25T12:11:01;24.90;99.90
11922;DHT22;6021;51.182;3.160;2022-08-25T12:13:47;25.10;99.90
11922;DHT22;6021;51.182;3.160;2022-08-25T12:21:57;25.00;99.90
11922;DHT22;6021;51.182;3.160;2022-08-25T12:28:13;24.90;99.90
11922;DHT22;6021;51.182;3.160;2022-08-25T12:30:18;24.80;99.90
11922;DHT22;6021;51.182;3.160;2022-08-25T12:35:58;24.80;99.90
11922;DHT22;6021;51.182;3.160;2022-08-25T12:41:13;24.80;99.90
11922;DHT22;6021;51.182;3.160;2022-08-25T12:43:47;24.90;99.90
11922;DHT22;6021;51.182;3.160;2022-08-25T12:49:02;24.80;99.90
11922;DHT22;6021;51.182;3.160;2022-08-25T12:51:45;24.70;99.90
11922;DHT22;6021;51.182;3.160;2022-08-25T12:58:07;24.80;99.90
11922;DHT22;6021;51.182;3.160;2022-08-25T12:59:53;24.70;99.90
11922;DHT22;6021;51.182;3.160;2022-08-25T13:11:35;24.20;99.90
11922;DHT22;6021;51.182;3.160;2022-08-25T13:17:05;24.20;99.90
11922;DHT22;6021;51.182;3.160;2022-08-25T13:19:35;24.00;99.90
11922;DHT22;6021;51.182;3.160;2022-08-25T13:22:11;24.00;99.90
11922;DHT22;6021;51.182;3.160;2022-08-25T13:24:41;24.00;99.90
11922;DHT22;6021;51.182;3.160;2022-08-25T13:27:23;23.90;99.90
11922;DHT22;6021;51.182;3.160;2022-08-25T13:29:53;24.00;99.90
11922;DHT22;6021;51.182;3.160;2022-08-25T13:32:31;24.00;99.90
11922;DHT22;6021;51.182;3.160;2022-08-25T13:35:24;24.10;99.90
11922;DHT22;6021;51.182;3.160;2022-08-25T13:37:52;24.00;99.90
11922;DHT22;6021;51.182;3.160;2022-08-25T13:40:25;24.10;99.90
11922;DHT22;6021;51.182;3.160;2022-08-25T13:42:57;24.10;99.90
11922;DHT22;6021;51.182;3.160;2022-08-25T13:45:29;24.10;99.90
11922;DHT22;6021;51.182;3.160;2022-08-25T13:47:58;24.10;99.90
11922;DHT22;6021;51.182;3.160;2022-08-25T13:50:33;24.10;99.90
11922;DHT22;6021;51.182;3.160;2022-08-25T13:53:21;23.90;99.90
11922;DHT22;6021;51.182;3.160;2022-08-25T13:55:57;24.00;99.90
11922;DHT22;6021;51.182;3.160;2022-08-25T13:58:33;24.10;99.90
11922;DHT22;6021;51.182;3.160;2022-08-25T14:03:46;24.10;99.90
11922;DHT22;6021;51.182;3.160;2022-08-25T14:08:48;24.10;99.90
11922;DHT22;6021;51.182;3.160;2022-08-25T14:11:46;24.00;99.90
11922;DHT22;6021;51.182;3.160;2022-08-25T14:16:58;24.10;99.90
11922;DHT22;6021;51.182;3.160;2022-08-25T14:19:28;24.20;99.90
11922;DHT22;6021;51.182;3.160;2022-08-25T14:21:57;24.20;99.90
11922;DHT22;6021;51.182;3.160;2022-08-25T14:24:32;24.10;99.90
11922;DHT22;6021;51.182;3.160;2022-08-25T14:27:02;23.90;99.90
11922;DHT22;6021;51.182;3.160;2022-08-25T14:29:30;23.80;99.90
11922;DHT22;6021;51.182;3.160;2022-08-25T14:31:59;23.80;99.90
11922;DHT22;6021;51.182;3.160;2022-08-25T14:34:39;23.70;99.90
11922;DHT22;6021;51.182;3.160;2022-08-25T14:37:18;23.70;99.90
11922;DHT22;6021;51.182;3.160;2022-08-25T14:39:47;23.70;99.90
11922;DHT22;6021;51.182;3.160;2022-08-25T14:42:15;23.60;99.90
11922;DHT22;6021;51.182;3.160;2022-08-25T14:44:43;23.50;99.90
11922;DHT22;6021;51.182;3.160;2022-08-25T14:47:12;23.50;99.90
11922;DHT22;6021;51.182;3.160;2022-08-25T14:49:41;23.50;99.90
11922;DHT22;6021;51.182;3.160;2022-08-25T14:52:23;23.60;99.90
11922;DHT22;6021;51.182;3.160;2022-08-25T14:55:00;23.60;99.90
11922;DHT22;6021;51.182;3.160;2022-08-25T14:57:37;23.60;99.90
11922;DHT22;6021;51.182;3.160;2022-08-25T15:00:06;23.50;99.90
11922;DHT22;6021;51.182;3.160;2022-08-25T15:02:38;23.60;99.90
11922;DHT22;6021;51.182;3.160;2022-08-25T15:05:09;23.50;99.90
11922;DHT22;6021;51.182;3.160;2022-08-25T15:07:38;23.40;99.90
11922;DHT22;6021;51.182;3.160;2022-08-25T15:10:24;23.40;99.90
11922;DHT22;6021;51.182;3.160;2022-08-25T15:12:53;23.50;99.90
11922;DHT22;6021;51.182;3.160;2022-08-25T15:15:21;23.50;99.90
11922;DHT22;6021;51.182;3.160;2022-08-25T15:17:51;23.60;99.90
11922;DHT22;6021;51.182;3.160;2022-08-25T15:20:20;23.60;99.90
11922;DHT22;6021;51.182;3.160;2022-08-25T15:25:26;23.50;99.90
11922;DHT22;6021;51.182;3.160;2022-08-25T15:27:55;23.50;99.90
11922;DHT22;6021;51.182;3.160;2022-08-25T15:30:24;23.50;99.90
11922;DHT22;6021;51.182;3.160;2022-08-25T15:32:52;23.50;99.90
11922;DHT22;6021;51.182;3.160;2022-08-25T15:35:21;23.40;99.90
11922;DHT22;6021;51.182;3.160;2022-08-25T15:37:49;23.40;99.90
11922;DHT22;6021;51.182;3.160;2022-08-25T15:40:18;23.30;99.90
11922;DHT22;6021;51.182;3.160;2022-08-25T15:42:47;23.30;99.90
11922;DHT22;6021;51.182;3.160;2022-08-25T15:45:15;23.30;99.90
11922;DHT22;6021;51.182;3.160;2022-08-25T15:47:45;23.10;99.90
11922;DHT22;6021;51.182;3.160;2022-08-25T15:52:44;23.00;99.90
11922;DHT22;6021;51.182;3.160;2022-08-25T15:55:13;22.90;99.90
11922;DHT22;6021;51.182;3.160;2022-08-25T15:57:42;22.90;99.90
11922;DHT22;6021;51.182;3.160;2022-08-25T16:00:11;22.90;99.90
11922;DHT22;6021;51.182;3.160;2022-08-25T16:02:39;23.00;99.90
11922;DHT22;6021;51.182;3.160;2022-08-25T16:05:08;23.00;99.90
11922;DHT22;6021;51.182;3.160;2022-08-25T16:07:37;23.00;99.90
11922;DHT22;6021;51.182;3.160;2022-08-25T16:12:45;22.90;99.90
11922;DHT22;6021;51.182;3.160;2022-08-25T16:15:18;22.80;99.90
11922;DHT22;6021;51.182;3.160;2022-08-25T16:17:53;22.70;99.90
11922;DHT22;6021;51.182;3.160;2022-08-25T16:20:33;22.70;99.90
11922;DHT22;6021;51.182;3.160;2022-08-25T16:25:44;22.70;99.90
11922;DHT22;6021;51.182;3.160;2022-08-25T16:28:15;22.60;99.90
11922;DHT22;6021;51.182;3.160;2022-08-25T16:30:52;22.60;99.90
11922;DHT22;6021;51.182;3.160;2022-08-25T16:33:23;22.60;99.90
11922;DHT22;6021;51.182;3.160;2022-08-25T16:38:40;22.40;99.90
11922;DHT22;6021;51.182;3.160;2022-08-25T16:41:22;22.40;99.90
11922;DHT22;6021;51.182;3.160;2022-08-25T16:43:54;22.30;99.90
11922;DHT22;6021;51.182;3.160;2022-08-25T16:51:36;22.50;99.90
11922;DHT22;6021;51.182;3.160;2022-08-25T16:56:40;22.30;98.10
11922;DHT22;6021;51.182;3.160;2022-08-25T16:59:10;22.20;98.00
11922;DHT22;6021;51.182;3.160;2022-08-25T17:01:41;22.30;90.10
11922;DHT22;6021;51.182;3.160;2022-08-25T17:04:11;22.20;86.10
11922;DHT22;6021;51.182;3.160;2022-08-25T17:06:41;22.10;93.80
11922;DHT22;6021;51.182;3.160;2022-08-25T17:09:12;22.10;94.00
11922;DHT22;6021;51.182;3.160;2022-08-25T17:11:46;22.00;86.50
11922;DHT22;6021;51.182;3.160;2022-08-25T17:14:16;22.10;92.10
11922;DHT22;6021;51.182;3.160;2022-08-25T17:16:45;22.00;92.60
11922;DHT22;6021;51.182;3.160;2022-08-25T17:19:16;22.00;95.40
11922;DHT22;6021;51.182;3.160;2022-08-25T17:21:44;22.00;96.90
11922;DHT22;6021;51.182;3.160;2022-08-25T17:26:46;21.90;99.10
11922;DHT22;6021;51.182;3.160;2022-08-25T17:29:18;21.90;97.70
11922;DHT22;6021;51.182;3.160;2022-08-25T17:31:46;22.00;97.40
11922;DHT22;6021;51.182;3.160;2022-08-25T17:34:15;22.00;98.80
11922;DHT22;6021;51.182;3.160;2022-08-25T17:36:44;21.90;99.90
11922;DHT22;6021;51.182;3.160;2022-08-25T17:39:13;21.90;99.90
11922;DHT22;6021;51.182;3.160;2022-08-25T17:44:22;21.80;99.90
11922;DHT22;6021;51.182;3.160;2022-08-25T17:46:52;21.80;99.90
11922;DHT22;6021;51.182;3.160;2022-08-25T17:49:23;21.80;99.90
11922;DHT22;6021;51.182;3.160;2022-08-25T17:51:54;21.80;99.90
11922;DHT22;6021;51.182;3.160;2022-08-25T17:54:30;21.80;99.90
11922;DHT22;6021;51.182;3.160;2022-08-25T17:56:59;21.80;99.90
11922;DHT22;6021;51.182;3.160;2022-08-25T17:59:30;21.80;99.90
11922;DHT22;6021;51.182;3.160;2022-08-25T18:02:02;21.90;99.90
11922;DHT22;6021;51.182;3.160;2022-08-25T18:04:39;21.80;99.90
11922;DHT22;6021;51.182;3.160;2022-08-25T18:07:08;21.70;99.90
11922;DHT22;6021;51.182;3.160;2022-08-25T18:09:42;21.70;99.90
11922;DHT22;6021;51.182;3.160;2022-08-25T18:12:06;21.70;99.90